ADDS METAR Data INFO
IDs: Format: Raw Decoded Include TAF

Data at: 0500 UTC 23 May 2017

KPNA 230455Z AUTO 30010KT 10SM CLR 05/M01 A3032 RMK AO2
KPNA 230435Z AUTO 30008KT 10SM CLR 05/M01 A3032 RMK AO2
KPNA 230415Z AUTO 29008KT 10SM SCT100 06/M01 A3031 RMK AO2
KPNA 230355Z AUTO 29008KT 10SM SCT110 06/M01 A3032 RMK AO2
KPNA 230335Z AUTO 34008G14KT 10SM CLR 07/M02 A3031 RMK AO2
KPNA 230315Z AUTO 33008KT 10SM SCT110 08/M01 A3030 RMK AO2
KPNA 230255Z AUTO 34011KT 10SM OVC100 10/M01 A3030 RMK AO2
KPNA 230235Z AUTO 33013KT 10SM OVC110 10/M01 A3029 RMK AO2
KPNA 230215Z AUTO 32015G19KT 10SM BKN110 11/M01 A3029 RMK AO2
KPNA 230155Z AUTO 33016G23KT 10SM SCT095 BKN110 11/M02 A3027 RMK AO2
KPNA 230135Z AUTO 36018G21KT 10SM SCT075 BKN090 12/M01 A3027 RMK AO2
KPNA 230115Z AUTO 33013G19KT 10SM SCT065 OVC090 12/00 A3027 RMK AO2
KPNA 230055Z AUTO 35015G21KT 10SM SCT065 BKN090 OVC120 12/00 A3027 RMK AO2
KPNA 230035Z AUTO 01015G25KT 10SM SCT065 BKN075 BKN095 12/01 A3026 RMK AO2
KPNA 230015Z AUTO 02012KT 10SM SCT065 OVC075 12/01 A3024 RMK AO2
KPNA 222355Z AUTO 34018G23KT 10SM OVC080 13/M01 A3023 RMK AO2
KPNA 222335Z AUTO 34022G29KT 10SM SCT048 SCT065 BKN090 13/M01 A3024 RMK AO2
KPNA 222315Z AUTO 35014G18KT 10SM CLR 14/M01 A3023 RMK AO2
KPNA 222255Z AUTO 01017G28KT 10SM SCT080 SCT090 SCT110 14/00 A3023 RMK AO2
KPNA 222235Z AUTO 36026G32KT 7SM BKN080 OVC090 14/M01 A3024 RMK AO2
KPNA 222215Z AUTO 34021G30KT 10SM SCT090 SCT110 17/M02 A3022 RMK AO2
KPNA 222155Z AUTO 32017G25KT 10SM SCT110 16/M03 A3022 RMK AO2 LTG DSNT E
KPNA 222135Z AUTO 33018G25KT 10SM SCT095 BKN110 16/M03 A3022 RMK AO2
KPNA 222115Z AUTO 34022G30KT 10SM OVC095 15/M04 A3022 RMK AO2
KPNA 222055Z AUTO 35022G30KT 10SM BKN095 BKN110 17/M05 A3022 RMK AO2
KPNA 222035Z AUTO 32019G27KT 10SM SCT075 BKN095 BKN110 16/M05 A3022 RMK AO2
KPNA 222015Z AUTO 32017G27KT 10SM BKN085 16/M05 A3022 RMK AO2 LTG DSNT N AND NE
KPNA 221955Z AUTO 31017G23KT 10SM BKN085 16/M04 A3022 RMK AO2
KPNA 221935Z AUTO 32018G24KT 10SM BKN095 BKN110 15/M03 A3023 RMK AO2
KPNA 221915Z AUTO 32014G24KT 10SM BKN085 15/M03 A3024 RMK AO2
KPNA 221855Z AUTO 32010G20KT 10SM OVC085 13/M03 A3024 RMK AO2
KPNA 221835Z AUTO 31015G22KT 10SM SCT075 BKN085 15/M02 A3025 RMK AO2
KPNA 221815Z AUTO 32013G21KT 270V340 10SM SCT070 BKN085 14/M02 A3025 RMK AO2
KPNA 221755Z AUTO 31013G19KT 10SM SCT060 SCT080 13/M02 A3026 RMK AO2
KPNA 221735Z AUTO 31008G20KT 10SM SCT060 13/M02 A3027 RMK AO2
KPNA 221715Z AUTO 31015G19KT 10SM SCT060 SCT075 13/M02 A3027 RMK AO2
KPNA 221655Z AUTO 30010G19KT 270V340 10SM SCT060 12/M02 A3029 RMK AO2
KPNA 221635Z AUTO 34011G16KT 300V360 10SM SCT060 12/M02 A3029 RMK AO2
KPNA 221615Z AUTO 33013G18KT 10SM CLR 11/00 A3029 RMK AO2 LTG DSNT NE
KPNA 221555Z AUTO 31011G17KT 10SM CLR 11/00 A3029 RMK AO2
KPNA 221535Z AUTO 33009G15KT 10SM CLR 10/00 A3030 RMK AO2
KPNA 221515Z AUTO 32006KT 10SM CLR 09/01 A3031 RMK AO2
KPNA 221455Z AUTO 32008KT 10SM CLR 08/01 A3031 RMK AO2
KPNA 221435Z AUTO 33008KT 10SM CLR 06/01 A3032 RMK AO2
KPNA 221415Z AUTO 32007KT 10SM CLR 05/00 A3032 RMK AO2
KPNA 221355Z AUTO 32007KT 10SM CLR 03/00 A3032 RMK AO2
KPNA 221335Z AUTO 31009KT 10SM CLR 01/00 A3032 RMK AO2
KPNA 221315Z AUTO 31006KT 10SM CLR 00/00 A3032 RMK AO2
KPNA 221255Z AUTO 29004KT 10SM CLR 00/00 A3032 RMK AO2
KPNA 221235Z AUTO 33006KT 10SM CLR M01/M01 A3032 RMK AO2
KPNA 221215Z AUTO 31005KT 10SM CLR M02/M02 A3032 RMK AO2
KPNA 221155Z AUTO 29005KT 10SM CLR M02/M02 A3032 RMK AO2
KPNA 221135Z AUTO 30005KT 10SM CLR M03/M03 A3032 RMK AO2
KPNA 221115Z AUTO 32003KT 10SM CLR M02/M02 A3032 RMK AO2
KPNA 221055Z AUTO 30006KT 10SM CLR M02/M02 A3032 RMK AO2
KPNA 221035Z AUTO 32005KT 10SM CLR M02/M02 A3033 RMK AO2
KPNA 221015Z AUTO 31006KT 10SM CLR M02/M02 A3033 RMK AO2
KPNA 220955Z AUTO 30004KT 10SM CLR M02/M02 A3033 RMK AO2
KPNA 220935Z AUTO 29004KT 10SM CLR M02/M02 A3033 RMK AO2
KPNA 220915Z AUTO 30003KT 10SM CLR M01/M02 A3034 RMK AO2
KPNA 220855Z AUTO 34006KT 10SM CLR M01/M01 A3034 RMK AO2
KPNA 220835Z AUTO 31005KT 10SM CLR 00/M01 A3034 RMK AO2
KPNA 220815Z AUTO 29005KT 10SM CLR M01/M01 A3035 RMK AO2
KPNA 220755Z AUTO 29003KT 10SM CLR 00/00 A3035 RMK AO2
KPNA 220735Z AUTO 30003KT 10SM CLR 00/00 A3035 RMK AO2
KPNA 220715Z AUTO 00000KT 10SM CLR 00/00 A3035 RMK AO2
KPNA 220655Z AUTO 00000KT 10SM CLR 01/00 A3035 RMK AO2
KPNA 220635Z AUTO 36003KT 10SM CLR 00/00 A3035 RMK AO2
KPNA 220615Z AUTO 00000KT 10SM CLR 01/00 A3035 RMK AO2
KPNA 220555Z AUTO 32003KT 10SM CLR 02/01 A3035 RMK AO2
KPNA 220535Z AUTO 00000KT 10SM CLR 02/01 A3035 RMK AO2
KPNA 220515Z AUTO 26003KT 10SM CLR 02/01 A3035 RMK AO2
KPNA 220455Z AUTO 00000KT 10SM CLR 03/01 A3034 RMK AO2
KPNA 220435Z AUTO 10005KT 10SM CLR 03/01 A3034 RMK AO2
KPNA 220415Z AUTO 04004KT 10SM CLR 03/01 A3034 RMK AO2
KPNA 220355Z AUTO 09003KT 10SM CLR 05/02 A3032 RMK AO2
KPNA 220335Z AUTO 12003KT 10SM CLR 05/01 A3031 RMK AO2
KPNA 220315Z AUTO 16004KT 10SM CLR 06/02 A3030 RMK AO2
KPNA 220255Z AUTO 17007KT 10SM CLR 06/02 A3029 RMK AO2
KPNA 220235Z AUTO 18010KT 10SM CLR 07/02 A3028 RMK AO2
KPNA 220215Z AUTO 17012KT 10SM CLR 08/01 A3027 RMK AO2 LTG DSNT SE
KPNA 220155Z AUTO 17010G14KT 10SM CLR 08/02 A3027 RMK AO2
KPNA 220135Z AUTO 15012G18KT 10SM SCT060 SCT080 10/01 A3026 RMK AO2
KPNA 220115Z AUTO 14015KT 10SM SCT060 SCT095 10/02 A3026 RMK AO2
KPNA 220055Z AUTO 15019G22KT 10SM SCT095 12/01 A3023 RMK AO2
KPNA 220035Z AUTO 16009KT 10SM SCT095 13/00 A3023 RMK AO2
KPNA 220015Z AUTO 17007KT 10SM SCT095 12/00 A3022 RMK AO2 LTG DSNT S
KPNA 212355Z AUTO 18008KT 10SM SCT095 12/00 A3022 RMK AO2
KPNA 212335Z AUTO 00000KT 10SM SCT095 12/M02 A3022 RMK AO2 LTG DSNT SE
KPNA 212315Z AUTO 00000KT 10SM CLR 13/M03 A3021 RMK AO2 LTG DSNT SE AND S
KPNA 212255Z AUTO 00000KT 10SM CLR 13/M02 A3022 RMK AO2 LTG DSNT S
KPNA 212235Z AUTO 00000KT 10SM SCT050 SCT070 BKN120 13/M02 A3022 RMK AO2 LTG DSNT E AND S
KPNA 212215Z AUTO 33003G18KT 10SM SCT050 BKN070 OVC095 11/M02 A3022 RMK AO2 LTG DSNT S
KPNA 212155Z AUTO 31005KT 10SM -RA BKN060 BKN080 OVC110 11/00 A3023 RMK AO2 LTG DSNT E AND S
KPNA 212135Z AUTO 06004G15KT 10SM VCTS SCT060 BKN080 BKN090 12/00 A3022 RMK AO2
KPNA 212115Z AUTO 00000KT 10SM SCT060 12/00 A3022 RMK AO2 LTG DSNT S
KPNA 212055Z AUTO 09004KT 10SM CLR 12/02 A3023 RMK AO2
KPNA 212035Z AUTO 00000KT 10SM SCT050 11/03 A3024 RMK AO2 LTG DSNT S
KPNA 212015Z AUTO 36009G21KT 7SM +RA SCT050 BKN060 OVC070 10/01 A3025 RMK AO2 LTG DSNT S
KPNA 211955Z AUTO 26012G18KT 10SM SCT060 BKN070 BKN080 12/00 A3024 RMK AO2 LTG DSNT S
KPNA 211935Z AUTO 26014G18KT 10SM BKN060 BKN070 BKN090 11/M01 A3025 RMK AO2
KPNA 211915Z AUTO 34007G16KT 10SM BKN060 BKN090 13/M01 A3024 RMK AO2
KPNA 211855Z AUTO 29004G17KT 10SM SCT060 SCT090 13/M01 A3025 RMK AO2
KPNA 211835Z AUTO 30003KT 10SM SCT080 12/M01 A3025 RMK AO2 LTG DSNT N
KPNA 211815Z AUTO 00000KT 10SM BKN070 11/00 A3026 RMK AO2
KPNA 211755Z AUTO 33006KT 10SM SCT044 SCT060 OVC070 10/M01 A3027 RMK AO2
KPNA 211735Z AUTO 00000KT 10SM SCT044 SCT050 BKN060 11/00 A3027 RMK AO2 LTG DSNT SW
KPNA 211715Z AUTO 00000KT 10SM SCT035 SCT042 BKN060 10/00 A3027 RMK AO2


Page loaded:  05:00 UTC  |   10:00 PM Pacific  |   11:00 PM Mountain  |   12:00 AM Central  |   01:00 AM Eastern

 

ADVISORIES

FORECASTS

FORECASTS

OBSERVATIONS

USER TOOLS

ABOUT US